Time;durP1;ratioP1;P1;durP2;ratioP2;P2;SDS_P1;SDS_P2;PMS_P1;PMS_P2;Temp;Humidity;BMP_temperature;BMP_pressure;BME280_temperature;BME280_humidity;BME280_pressure;Samples;Min_cycle;Max_cycle;Signal;HPM_P1;HPM_P2
2022/02/07 00:01:11;;;;;;;0.30;0.30;;;;;;;;;;1835352;77;26303;-35
2022/02/07 00:03:52;;;;;;;0.50;0.50;;;;;;;;;;1839538;78;26410;-37
2022/02/07 00:06:16;;;;;;;0.47;0.47;;;;;;;;;;1855773;76;26423;-39
2022/02/07 00:08:42;;;;;;;0.53;0.45;;;;;;;;;;1810894;78;26315;-36
2022/02/07 00:11:09;;;;;;;0.40;0.40;;;;;;;;;;1821415;78;26313;-37
2022/02/07 00:13:37;;;;;;;0.88;0.40;;;;;;;;;;1839778;76;25840;-36
2022/02/07 00:16:04;;;;;;;0.57;0.33;;;;;;;;;;1842000;78;26829;-37
2022/02/07 00:18:33;;;;;;;0.40;0.40;;;;;;;;;;1831849;77;26272;-36
2022/02/07 00:21:00;;;;;;;0.30;0.30;;;;;;;;;;1823326;78;26296;-36
2022/02/07 00:23:27;;;;;;;0.98;0.37;;;;;;;;;;1842248;78;26820;-37
2022/02/07 00:25:55;;;;;;;0.40;0.40;;;;;;;;;;1842534;78;26725;-37
2022/02/07 00:28:23;;;;;;;0.62;0.40;;;;;;;;;;1860958;76;26390;-36
2022/02/07 00:30:50;;;;;;;0.28;0.28;;;;;;;;;;1863003;77;27366;-36
2022/02/07 00:33:19;;;;;;;0.82;0.37;;;;;;;;;;1862332;77;26409;-37
2022/02/07 00:35:47;;;;;;;2.08;0.40;;;;;;;;;;1861824;77;26276;-36
2022/02/07 00:38:18;;;;;;;0.40;0.40;;;;;;;;;;1864339;77;26305;-36
2022/02/07 00:40:59;;;;;;;0.40;0.40;;;;;;;;;;1855202;77;26905;-36
2022/02/07 00:43:26;;;;;;;1.27;0.28;;;;;;;;;;1861507;77;26268;-36
2022/02/07 00:45:53;;;;;;;0.30;0.30;;;;;;;;;;1852239;76;26303;-36
2022/02/07 00:48:24;;;;;;;0.50;0.50;;;;;;;;;;1865327;75;26324;-37
2022/02/07 00:50:48;;;;;;;0.40;0.40;;;;;;;;;;1855194;77;26335;-37
2022/02/07 00:53:15;;;;;;;0.40;0.40;;;;;;;;;;1861774;77;26247;-36
2022/02/07 00:55:43;;;;;;;0.30;0.23;;;;;;;;;;1851096;77;26408;-36
2022/02/07 00:58:10;;;;;;;0.30;0.30;;;;;;;;;;1829563;78;26359;-36
2022/02/07 01:00:37;;;;;;;0.55;0.55;;;;;;;;;;1863989;77;26380;-37
2022/02/07 01:03:04;;;;;;;0.50;0.50;;;;;;;;;;1862878;77;26785;-36
2022/02/07 01:05:32;;;;;;;0.45;0.35;;;;;;;;;;1845944;77;25649;-37
2022/02/07 01:08:00;;;;;;;0.45;0.45;;;;;;;;;;1807269;78;26233;-37
2022/02/07 01:10:38;;;;;;;0.20;0.20;;;;;;;;;;1827854;78;26239;-37
2022/02/07 01:13:10;;;;;;;0.30;0.30;;;;;;;;;;1858609;77;26814;-38
2022/02/07 01:53:25;;;;;;;0.33;0.20;;;;;;;;;;1893397;74;26253;-36
2022/02/07 01:55:44;;;;;;;0.55;0.33;;;;;;;;;;1863990;75;26232;-36
2022/02/07 01:58:12;;;;;;;0.40;0.40;;;;;;;;;;1892145;75;26230;-36
2022/02/07 02:00:41;;;;;;;0.30;0.30;;;;;;;;;;1878876;75;26777;-36
2022/02/07 02:03:10;;;;;;;0.50;0.50;;;;;;;;;;1898432;75;26264;-36
2022/02/07 02:05:38;;;;;;;0.65;0.20;;;;;;;;;;1894390;75;26359;-39
2022/02/07 02:08:06;;;;;;;0.37;0.37;;;;;;;;;;1891602;75;26335;-37
2022/02/07 02:10:36;;;;;;;0.40;0.40;;;;;;;;;;1890805;74;26174;-36
2022/02/07 02:13:14;;;;;;;0.40;0.40;;;;;;;;;;1894440;74;26225;-36
2022/02/07 02:15:48;;;;;;;0.37;0.37;;;;;;;;;;1866456;75;26296;-36
2022/02/07 02:37:45;;;;;;;0.40;0.40;;;;;;;;;;1887203;75;26362;-38
2022/02/07 02:45:41;;;;;;;0.25;0.25;;;;;;;;;;1780795;80;25310;-36
2022/02/07 02:48:08;;;;;;;0.20;0.20;;;;;;;;;;1835570;75;26239;-36
2022/02/07 02:50:35;;;;;;;0.30;0.30;;;;;;;;;;1881878;75;26744;-36
2022/02/07 02:53:07;;;;;;;0.20;0.20;;;;;;;;;;1874784;75;26767;-36
2022/02/07 02:55:35;;;;;;;0.30;0.30;;;;;;;;;;1883930;75;26257;-36
2022/02/07 02:58:04;;;;;;;0.33;0.33;;;;;;;;;;1897024;75;25205;-37
2022/02/07 03:00:32;;;;;;;0.30;0.30;;;;;;;;;;1898662;75;26186;-36
2022/02/07 03:03:00;;;;;;;0.50;0.40;;;;;;;;;;1898806;75;25305;-36
2022/02/07 03:05:27;;;;;;;0.47;0.40;;;;;;;;;;1884092;75;26358;-36
2022/02/07 03:07:55;;;;;;;0.50;0.50;;;;;;;;;;1885686;75;26808;-36
2022/02/07 03:18:23;;;;;;;0.40;0.40;;;;;;;;;;1881091;75;25289;-36
2022/02/07 03:20:51;;;;;;;0.50;0.30;;;;;;;;;;1879284;75;26267;-36
2022/02/07 03:23:18;;;;;;;0.28;0.28;;;;;;;;;;1878376;75;25248;-37
2022/02/07 03:25:46;;;;;;;0.47;0.47;;;;;;;;;;1900226;74;26255;-37
2022/02/07 03:28:13;;;;;;;0.30;0.30;;;;;;;;;;1872555;75;26743;-37
2022/02/07 03:30:41;;;;;;;0.30;0.30;;;;;;;;;;1871843;75;26348;-38
2022/02/07 03:33:08;;;;;;;0.42;0.20;;;;;;;;;;1873247;76;26330;-36
2022/02/07 03:35:36;;;;;;;0.30;0.30;;;;;;;;;;1869822;75;26372;-36
2022/02/07 03:38:04;;;;;;;0.90;0.30;;;;;;;;;;1876624;75;26311;-36
2022/02/07 03:40:31;;;;;;;0.70;0.30;;;;;;;;;;1867788;75;26279;-39
2022/02/07 03:42:59;;;;;;;0.42;0.42;;;;;;;;;;1869433;75;26267;-36
2022/02/07 03:45:26;;;;;;;0.30;0.30;;;;;;;;;;1848579;76;26663;-36
2022/02/07 03:47:53;;;;;;;0.40;0.40;;;;;;;;;;1872284;75;26267;-36
2022/02/07 03:50:21;;;;;;;0.40;0.40;;;;;;;;;;1873530;75;26269;-37
2022/02/07 03:52:50;;;;;;;0.25;0.25;;;;;;;;;;1871257;75;26267;-36
2022/02/07 03:55:18;;;;;;;0.30;0.30;;;;;;;;;;1872336;75;25272;-38
2022/02/07 03:57:45;;;;;;;0.40;0.40;;;;;;;;;;1865225;75;26345;-36
2022/02/07 04:00:14;;;;;;;0.20;0.20;;;;;;;;;;1862975;75;26229;-37
2022/02/07 04:02:45;;;;;;;1.22;0.20;;;;;;;;;;1873463;75;27168;-36
2022/02/07 04:07:57;;;;;;;0.30;0.30;;;;;;;;;;1873432;75;26781;-36
2022/02/07 04:10:25;;;;;;;0.30;0.30;;;;;;;;;;1873316;75;26238;-36
2022/02/07 04:12:59;;;;;;;0.23;0.23;;;;;;;;;;1872552;75;26356;-36
2022/02/07 04:15:22;;;;;;;0.23;0.23;;;;;;;;;;1871604;75;26343;-36
2022/02/07 04:18:00;;;;;;;0.30;0.30;;;;;;;;;;1871927;76;26281;-36
2022/02/07 04:20:21;;;;;;;1.25;0.40;;;;;;;;;;1871370;75;25761;-36
2022/02/07 04:22:49;;;;;;;0.23;0.20;;;;;;;;;;1872996;75;26369;-36
2022/02/07 04:25:16;;;;;;;0.30;0.30;;;;;;;;;;1863674;75;26733;-36
2022/02/07 04:27:44;;;;;;;1.12;0.40;;;;;;;;;;1862812;75;26336;-36
2022/02/07 04:30:12;;;;;;;0.10;0.10;;;;;;;;;;1891734;74;26786;-37
2022/02/07 04:32:39;;;;;;;0.25;0.20;;;;;;;;;;1895480;74;26276;-36
2022/02/07 04:35:07;;;;;;;0.30;0.30;;;;;;;;;;1897775;75;26276;-36
2022/02/07 04:37:34;;;;;;;0.40;0.40;;;;;;;;;;1882487;74;26272;-37
2022/02/07 04:40:02;;;;;;;0.40;0.40;;;;;;;;;;1898226;75;26217;-37
2022/02/07 04:42:29;;;;;;;0.30;0.30;;;;;;;;;;1895308;74;26253;-37
2022/02/07 04:55:40;;;;;;;0.23;0.23;;;;;;;;;;1885968;74;26266;-36
2022/02/07 04:57:50;;;;;;;0.20;0.20;;;;;;;;;;1878452;74;26777;-37
2022/02/07 05:03:31;;;;;;;0.30;0.30;;;;;;;;;;1898417;74;26245;-36
2022/02/07 05:16:25;;;;;;;0.20;0.20;;;;;;;;;;1883248;74;26348;-36
2022/02/07 05:18:55;;;;;;;0.70;0.47;;;;;;;;;;1887935;75;26306;-35
2022/02/07 05:21:20;;;;;;;0.30;0.30;;;;;;;;;;1891543;75;26432;-38
2022/02/07 05:23:48;;;;;;;0.30;0.30;;;;;;;;;;1890725;74;26315;-36
2022/02/07 05:26:16;;;;;;;0.28;0.28;;;;;;;;;;1895516;75;25199;-37
2022/02/07 05:28:43;;;;;;;1.75;0.30;;;;;;;;;;1892085;75;26229;-36
2022/02/07 05:31:11;;;;;;;0.45;0.30;;;;;;;;;;1899873;74;26785;-35
2022/02/07 05:33:39;;;;;;;0.40;0.40;;;;;;;;;;1891366;75;26302;-36
2022/02/07 05:36:10;;;;;;;0.53;0.45;;;;;;;;;;1895742;75;26260;-38
2022/02/07 05:38:41;;;;;;;0.30;0.30;;;;;;;;;;1893428;75;25697;-37
2022/02/07 05:41:09;;;;;;;1.65;0.47;;;;;;;;;;1897230;74;26254;-36
2022/02/07 05:43:44;;;;;;;0.40;0.40;;;;;;;;;;1891102;75;26265;-39
2022/02/07 05:46:05;;;;;;;0.40;0.40;;;;;;;;;;1885476;75;26257;-36
2022/02/07 05:48:33;;;;;;;0.25;0.20;;;;;;;;;;1899423;75;26276;-37
2022/02/07 05:51:00;;;;;;;0.30;0.30;;;;;;;;;;1900757;75;26666;-36
2022/02/07 05:53:27;;;;;;;0.30;0.30;;;;;;;;;;1898659;75;26301;-38
2022/02/07 05:55:54;;;;;;;0.30;0.30;;;;;;;;;;1897258;75;26208;-38
2022/02/07 05:58:22;;;;;;;0.42;0.40;;;;;;;;;;1898592;75;26217;-36
2022/02/07 06:00:49;;;;;;;0.53;0.47;;;;;;;;;;1886403;75;25550;-36
2022/02/07 06:03:16;;;;;;;0.20;0.20;;;;;;;;;;1898669;75;26656;-36
2022/02/07 06:05:44;;;;;;;1.10;0.40;;;;;;;;;;1894091;75;26709;-36
2022/02/07 06:08:11;;;;;;;0.28;0.28;;;;;;;;;;1898796;75;26370;-36
2022/02/07 06:10:38;;;;;;;0.33;0.30;;;;;;;;;;1888550;75;26257;-36
2022/02/07 06:13:06;;;;;;;0.40;0.40;;;;;;;;;;1891533;74;26632;-38
2022/02/07 06:15:33;;;;;;;0.40;0.40;;;;;;;;;;1896640;75;26237;-37
2022/02/07 06:18:01;;;;;;;0.60;0.60;;;;;;;;;;1896561;75;26367;-37
2022/02/07 06:20:30;;;;;;;0.20;0.20;;;;;;;;;;1886651;75;26243;-36
2022/02/07 06:22:57;;;;;;;0.20;0.20;;;;;;;;;;1883255;75;26237;-36
2022/02/07 06:25:24;;;;;;;0.72;0.40;;;;;;;;;;1895980;74;26338;-38
2022/02/07 06:27:52;;;;;;;0.40;0.40;;;;;;;;;;1885671;75;25238;-36
2022/02/07 06:30:19;;;;;;;0.33;0.33;;;;;;;;;;1895757;75;26202;-39
2022/02/07 06:32:46;;;;;;;0.20;0.20;;;;;;;;;;1881703;76;26223;-36
2022/02/07 06:35:15;;;;;;;0.30;0.30;;;;;;;;;;1883727;76;26414;-37
2022/02/07 06:37:42;;;;;;;0.40;0.30;;;;;;;;;;1885590;76;26748;-36
2022/02/07 06:40:10;;;;;;;0.20;0.20;;;;;;;;;;1880710;76;26638;-36
2022/02/07 06:42:37;;;;;;;1.17;0.30;;;;;;;;;;1886159;76;26303;-36
2022/02/07 06:45:05;;;;;;;0.40;0.40;;;;;;;;;;1886307;76;26266;-38
2022/02/07 06:47:33;;;;;;;0.50;0.50;;;;;;;;;;1883542;76;26654;-36
2022/02/07 06:50:00;;;;;;;0.30;0.30;;;;;;;;;;1883607;76;26261;-37
2022/02/07 06:52:27;;;;;;;0.40;0.40;;;;;;;;;;1886258;76;26210;-37
2022/02/07 06:54:55;;;;;;;0.30;0.30;;;;;;;;;;1885887;76;26498;-37
2022/02/07 06:57:23;;;;;;;2.85;0.33;;;;;;;;;;1886112;76;26214;-36
2022/02/07 06:59:50;;;;;;;0.20;0.20;;;;;;;;;;1884514;76;26196;-36
2022/02/07 07:02:20;;;;;;;0.20;0.20;;;;;;;;;;1883393;76;26246;-36
2022/02/07 07:04:49;;;;;;;0.23;0.23;;;;;;;;;;1883100;74;26241;-38
2022/02/07 07:07:16;;;;;;;0.25;0.25;;;;;;;;;;1887498;76;26373;-36
2022/02/07 07:09:45;;;;;;;0.20;0.20;;;;;;;;;;1890562;76;26284;-38
2022/02/07 07:12:12;;;;;;;0.78;0.40;;;;;;;;;;1886395;76;26183;-38
2022/02/07 07:14:47;;;;;;;0.50;0.50;;;;;;;;;;1886201;74;26333;-36
2022/02/07 07:17:12;;;;;;;3.10;0.53;;;;;;;;;;1883403;76;26249;-37
2022/02/07 07:19:39;;;;;;;0.30;0.30;;;;;;;;;;1882179;76;26241;-38
2022/02/07 07:22:07;;;;;;;0.40;0.40;;;;;;;;;;1881538;76;26315;-39
2022/02/07 07:24:40;;;;;;;1.05;0.45;;;;;;;;;;1890256;76;26154;-39
2022/02/07 07:27:08;;;;;;;1.98;0.40;;;;;;;;;;1888414;76;26238;-37
2022/02/07 07:29:39;;;;;;;2.47;0.50;;;;;;;;;;1888952;76;26228;-37
2022/02/07 07:32:06;;;;;;;1.32;0.60;;;;;;;;;;1888137;76;26691;-38
2022/02/07 07:34:35;;;;;;;4.35;0.98;;;;;;;;;;1887972;76;25215;-40
2022/02/07 07:37:02;;;;;;;2.27;0.75;;;;;;;;;;1883740;74;26275;-37
2022/02/07 07:39:29;;;;;;;0.90;0.50;;;;;;;;;;1884100;74;25680;-38
2022/02/07 07:41:57;;;;;;;1.67;0.62;;;;;;;;;;1884993;76;26491;-37
2022/02/07 07:44:29;;;;;;;2.52;0.50;;;;;;;;;;1880313;76;26239;-37
2022/02/07 07:46:57;;;;;;;1.45;0.50;;;;;;;;;;1885693;74;26309;-38
2022/02/07 07:49:31;;;;;;;1.95;0.55;;;;;;;;;;1883640;76;26229;-36
2022/02/07 07:51:53;;;;;;;0.72;0.57;;;;;;;;;;1888480;76;26856;-36
2022/02/07 07:54:44;;;;;;;0.68;0.40;;;;;;;;;;1882678;76;26251;-37
2022/02/07 08:02:28;;;;;;;0.68;0.50;;;;;;;;;;1878140;74;26756;-37
2022/02/07 08:04:57;;;;;;;0.35;0.35;;;;;;;;;;1869889;74;26878;-37
2022/02/07 08:07:33;;;;;;;1.80;0.45;;;;;;;;;;1897699;74;26222;-38
2022/02/07 08:12:37;;;;;;;0.35;0.35;;;;;;;;;;1899221;74;26645;-39
2022/02/07 08:15:04;;;;;;;0.70;0.50;;;;;;;;;;1889340;74;26292;-37
2022/02/07 08:17:31;;;;;;;1.95;0.40;;;;;;;;;;1881690;76;26170;-37
2022/02/07 08:20:00;;;;;;;0.55;0.40;;;;;;;;;;1882636;76;26349;-37
2022/02/07 08:22:27;;;;;;;0.55;0.47;;;;;;;;;;1886933;74;26638;-37
2022/02/07 08:24:55;;;;;;;0.50;0.50;;;;;;;;;;1895684;74;26204;-38
2022/02/07 08:27:24;;;;;;;0.95;0.40;;;;;;;;;;1891203;74;25616;-37
2022/02/07 08:29:52;;;;;;;0.90;0.50;;;;;;;;;;1881481;76;26259;-37
2022/02/07 08:32:20;;;;;;;0.40;0.30;;;;;;;;;;1874920;74;26627;-38
2022/02/07 08:34:47;;;;;;;0.30;0.30;;;;;;;;;;1895134;74;26236;-36
2022/02/07 08:37:15;;;;;;;0.47;0.37;;;;;;;;;;1900139;74;26275;-37
2022/02/07 08:39:42;;;;;;;0.35;0.35;;;;;;;;;;1890308;74;26320;-38
2022/02/07 08:42:10;;;;;;;0.40;0.40;;;;;;;;;;1896977;74;26306;-37
2022/02/07 08:44:38;;;;;;;0.40;0.40;;;;;;;;;;1886568;74;27744;-41
2022/02/07 08:47:06;;;;;;;2.40;0.45;;;;;;;;;;1885605;74;27714;-42
2022/02/07 08:49:33;;;;;;;3.02;0.60;;;;;;;;;;1863786;74;30784;-43
2022/02/07 08:52:03;;;;;;;0.80;0.40;;;;;;;;;;1878376;75;27179;-39
2022/02/07 08:54:31;;;;;;;0.50;0.50;;;;;;;;;;1902385;75;26221;-39
2022/02/07 08:57:19;;;;;;;0.98;0.45;;;;;;;;;;1884623;75;26269;-50
2022/02/07 09:00:08;;;;;;;3.40;0.60;;;;;;;;;;1882477;74;27731;-41
2022/02/07 09:07:53;;;;;;;0.50;0.50;;;;;;;;;;1895106;74;26722;-41
2022/02/07 09:10:15;;;;;;;1.57;0.35;;;;;;;;;;1887700;74;26713;-42
2022/02/07 09:12:43;;;;;;;4.37;0.50;;;;;;;;;;1894399;74;26311;-45
2022/02/07 09:17:56;;;;;;;0.88;0.30;;;;;;;;;;1891470;74;26305;-41
2022/02/07 09:20:24;;;;;;;4.53;0.37;;;;;;;;;;1894341;74;26527;-46
2022/02/07 09:22:51;;;;;;;0.75;0.40;;;;;;;;;;1891754;74;26170;-41
2022/02/07 09:25:18;;;;;;;0.30;0.30;;;;;;;;;;1888115;74;26307;-41
2022/02/07 09:27:45;;;;;;;1.27;0.33;;;;;;;;;;1891003;74;26213;-43
2022/02/07 09:30:13;;;;;;;1.00;0.30;;;;;;;;;;1892584;74;26253;-47
2022/02/07 09:32:40;;;;;;;0.53;0.20;;;;;;;;;;1889161;74;26663;-44
2022/02/07 09:35:08;;;;;;;0.50;0.40;;;;;;;;;;1878746;74;27834;-40
2022/02/07 09:37:35;;;;;;;0.28;0.28;;;;;;;;;;1889475;74;28201;-47
2022/02/07 09:40:03;;;;;;;1.72;0.35;;;;;;;;;;1896957;74;26693;-42
2022/02/07 09:42:32;;;;;;;2.00;0.40;;;;;;;;;;1885511;74;26607;-39
2022/02/07 09:45:08;;;;;;;0.30;0.30;;;;;;;;;;1889900;74;26233;-42
2022/02/07 09:47:28;;;;;;;0.78;0.30;;;;;;;;;;1892057;75;26587;-41
2022/02/07 09:49:55;;;;;;;0.53;0.42;;;;;;;;;;1896623;74;26726;-46
2022/02/07 09:52:23;;;;;;;2.15;0.50;;;;;;;;;;1892622;74;26201;-42
2022/02/07 09:54:50;;;;;;;0.33;0.20;;;;;;;;;;1894644;74;26261;-40
2022/02/07 09:57:20;;;;;;;1.00;0.47;;;;;;;;;;1890979;74;26287;-40
2022/02/07 09:59:50;;;;;;;1.65;0.28;;;;;;;;;;1889828;74;26700;-42
2022/02/07 10:02:23;;;;;;;1.35;0.40;;;;;;;;;;1898967;74;26709;-43
2022/02/07 10:04:51;;;;;;;2.15;0.40;;;;;;;;;;1889020;74;26773;-42
2022/02/07 10:07:25;;;;;;;4.12;0.30;;;;;;;;;;1894311;74;26238;-41
2022/02/07 10:15:04;;;;;;;1.37;0.40;;;;;;;;;;1897970;74;26348;-47
2022/02/07 10:20:53;;;;;;;0.30;0.30;;;;;;;;;;1887281;75;26739;-45
2022/02/07 10:37:56;;;;;;;0.30;0.30;;;;;;;;;;1895880;75;26703;-39
2022/02/07 10:39:48;;;;;;;0.28;0.28;;;;;;;;;;1880148;75;26845;-41
2022/02/07 10:42:32;;;;;;;0.20;0.20;;;;;;;;;;1892618;74;26399;-39
2022/02/07 10:44:48;;;;;;;0.88;0.30;;;;;;;;;;1878125;74;26327;-39
2022/02/07 10:47:28;;;;;;;0.62;0.30;;;;;;;;;;1889521;74;26211;-44
2022/02/07 10:50:01;;;;;;;0.30;0.30;;;;;;;;;;1897133;74;26219;-49
2022/02/07 10:52:29;;;;;;;1.98;0.40;;;;;;;;;;1884154;75;27726;-53
2022/02/07 10:54:56;;;;;;;1.55;0.35;;;;;;;;;;1896338;74;26704;-39
2022/02/07 10:57:24;;;;;;;0.35;0.28;;;;;;;;;;1898377;75;26694;-48
2022/02/07 10:59:52;;;;;;;0.20;0.20;;;;;;;;;;1892542;75;26284;-41
2022/02/07 11:04:58;;;;;;;2.67;0.55;;;;;;;;;;1892643;74;26797;-51
2022/02/07 11:07:18;;;;;;;3.30;0.40;;;;;;;;;;1873171;75;27715;-44
2022/02/07 11:10:05;;;;;;;1.55;0.40;;;;;;;;;;1892966;75;26662;-55
2022/02/07 11:23:12;;;;;;;3.77;0.50;;;;;;;;;;1891385;74;26383;-49
2022/02/07 11:28:14;;;;;;;0.30;0.30;;;;;;;;;;1885466;75;26377;-43
2022/02/07 11:30:43;;;;;;;0.30;0.30;;;;;;;;;;1892810;75;25779;-52
2022/02/07 11:33:28;;;;;;;2.70;0.40;;;;;;;;;;1879667;75;26391;-61
2022/02/07 11:35:56;;;;;;;0.33;0.33;;;;;;;;;;1882596;75;26367;-53
2022/02/07 11:38:23;;;;;;;0.95;0.50;;;;;;;;;;1891839;74;27035;-51
2022/02/07 11:40:57;;;;;;;1.17;0.35;;;;;;;;;;1879131;75;26595;-51
2022/02/07 11:43:27;;;;;;;2.90;0.50;;;;;;;;;;1899166;75;26257;-47
2022/02/07 11:45:58;;;;;;;0.40;0.40;;;;;;;;;;1877702;75;26261;-53
2022/02/07 11:48:27;;;;;;;0.55;0.40;;;;;;;;;;1898850;75;26198;-42
2022/02/07 11:50:57;;;;;;;0.70;0.50;;;;;;;;;;1882705;75;26550;-42
2022/02/07 11:53:32;;;;;;;2.12;0.50;;;;;;;;;;1898814;75;26217;-52
2022/02/07 11:56:07;;;;;;;1.05;0.78;;;;;;;;;;1894059;74;26214;-48
2022/02/07 11:58:46;;;;;;;0.30;0.30;;;;;;;;;;1883270;75;26246;-47
2022/02/07 12:01:12;;;;;;;0.93;0.40;;;;;;;;;;1892077;74;26233;-46
2022/02/07 12:03:40;;;;;;;0.40;0.40;;;;;;;;;;1892679;75;26319;-49
2022/02/07 12:06:09;;;;;;;0.50;0.50;;;;;;;;;;1887970;75;26283;-45
2022/02/07 12:08:38;;;;;;;0.53;0.53;;;;;;;;;;1897316;75;26357;-51
2022/02/07 12:11:06;;;;;;;0.40;0.40;;;;;;;;;;1895141;75;26237;-44
2022/02/07 12:13:41;;;;;;;1.47;0.20;;;;;;;;;;1897332;74;26758;-49
2022/02/07 12:16:19;;;;;;;0.40;0.40;;;;;;;;;;1893619;74;26661;-49
2022/02/07 12:19:02;;;;;;;0.30;0.30;;;;;;;;;;1893925;75;26233;-45
2022/02/07 12:21:29;;;;;;;0.20;0.20;;;;;;;;;;1894811;75;26158;-47
2022/02/07 12:24:04;;;;;;;0.35;0.35;;;;;;;;;;1891940;75;26302;-50
2022/02/07 12:26:40;;;;;;;0.50;0.50;;;;;;;;;;1887953;75;26158;-48
2022/02/07 12:29:24;;;;;;;0.62;0.45;;;;;;;;;;1889988;75;26278;-50
2022/02/07 12:31:40;;;;;;;0.50;0.50;;;;;;;;;;1885987;75;26256;-50
2022/02/07 12:34:15;;;;;;;0.40;0.40;;;;;;;;;;1883639;75;28299;-39
2022/02/07 12:36:42;;;;;;;0.33;0.33;;;;;;;;;;1890472;75;26213;-39
2022/02/07 12:39:13;;;;;;;1.37;0.40;;;;;;;;;;1893561;75;26237;-37
2022/02/07 12:41:41;;;;;;;1.55;0.30;;;;;;;;;;1879285;75;26737;-39
2022/02/07 12:44:11;;;;;;;2.22;0.50;;;;;;;;;;1898773;75;26819;-43
2022/02/07 12:46:46;;;;;;;0.42;0.42;;;;;;;;;;1887176;75;26392;-44
2022/02/07 12:49:12;;;;;;;0.53;0.40;;;;;;;;;;1871290;74;26398;-40
2022/02/07 12:51:46;;;;;;;1.65;0.20;;;;;;;;;;1892910;75;25643;-42
2022/02/07 12:54:14;;;;;;;1.30;0.30;;;;;;;;;;1898711;75;26347;-40
2022/02/07 12:56:42;;;;;;;0.45;0.40;;;;;;;;;;1893515;75;26224;-43
2022/02/07 12:59:09;;;;;;;0.40;0.40;;;;;;;;;;1885349;74;26279;-39
2022/02/07 13:01:39;;;;;;;0.30;0.30;;;;;;;;;;1879385;74;26623;-40
2022/02/07 13:04:08;;;;;;;0.40;0.40;;;;;;;;;;1887464;75;26311;-40
2022/02/07 13:06:40;;;;;;;0.62;0.40;;;;;;;;;;1903257;74;26276;-52
2022/02/07 13:09:16;;;;;;;0.72;0.37;;;;;;;;;;1898871;75;26685;-44
2022/02/07 13:12:01;;;;;;;2.10;0.33;;;;;;;;;;1892177;74;26382;-53
2022/02/07 13:14:19;;;;;;;1.60;0.37;;;;;;;;;;1903988;74;26450;-46
2022/02/07 13:16:47;;;;;;;1.32;0.23;;;;;;;;;;1897301;74;26289;-47
2022/02/07 13:19:17;;;;;;;0.45;0.45;;;;;;;;;;1897017;74;26671;-43
2022/02/07 13:21:46;;;;;;;0.37;0.37;;;;;;;;;;1909581;74;26168;-46
2022/02/07 13:24:15;;;;;;;0.30;0.30;;;;;;;;;;1901248;74;26795;-44
2022/02/07 13:26:50;;;;;;;0.40;0.40;;;;;;;;;;1891958;74;26245;-54
2022/02/07 13:29:19;;;;;;;0.37;0.37;;;;;;;;;;1887658;75;26150;-46
2022/02/07 13:31:47;;;;;;;0.40;0.30;;;;;;;;;;1898963;74;26310;-47
2022/02/07 13:34:22;;;;;;;0.30;0.30;;;;;;;;;;1894748;74;26290;-48
2022/02/07 13:36:52;;;;;;;0.20;0.20;;;;;;;;;;1888196;74;26693;-43
2022/02/07 13:39:21;;;;;;;0.40;0.40;;;;;;;;;;1898160;74;26270;-48
2022/02/07 13:42:01;;;;;;;1.17;0.40;;;;;;;;;;1896579;74;26205;-45
2022/02/07 13:44:28;;;;;;;0.20;0.20;;;;;;;;;;1892204;74;26323;-47
2022/02/07 13:47:01;;;;;;;0.40;0.40;;;;;;;;;;1881516;74;26203;-46
2022/02/07 13:49:29;;;;;;;0.30;0.30;;;;;;;;;;1892298;75;26266;-46
2022/02/07 13:51:56;;;;;;;0.40;0.40;;;;;;;;;;1886202;75;26225;-49
2022/02/07 13:54:28;;;;;;;0.30;0.30;;;;;;;;;;1892931;75;26778;-44
2022/02/07 13:56:57;;;;;;;0.23;0.23;;;;;;;;;;1881619;75;26187;-42
2022/02/07 13:59:24;;;;;;;0.33;0.20;;;;;;;;;;1882934;75;26225;-44
2022/02/07 14:01:52;;;;;;;0.30;0.30;;;;;;;;;;1892052;75;26283;-42
2022/02/07 14:04:22;;;;;;;0.20;0.20;;;;;;;;;;1882960;75;26652;-43
2022/02/07 14:07:10;;;;;;;0.40;0.40;;;;;;;;;;1890645;74;26598;-47
2022/02/07 14:09:39;;;;;;;0.40;0.40;;;;;;;;;;1883193;75;26251;-46
2022/02/07 14:12:07;;;;;;;0.40;0.40;;;;;;;;;;1893167;75;26237;-46
2022/02/07 14:14:35;;;;;;;0.20;0.20;;;;;;;;;;1879268;74;27163;-43
2022/02/07 14:17:02;;;;;;;0.30;0.30;;;;;;;;;;1893341;75;26222;-44
2022/02/07 14:19:39;;;;;;;0.15;0.15;;;;;;;;;;1888857;75;26155;-45
2022/02/07 14:22:07;;;;;;;0.30;0.30;;;;;;;;;;1884891;75;26379;-43
2022/02/07 14:24:35;;;;;;;1.55;0.30;;;;;;;;;;1889746;75;26241;-43
2022/02/07 14:27:02;;;;;;;0.20;0.20;;;;;;;;;;1884463;74;26267;-44
2022/02/07 14:29:29;;;;;;;1.45;0.33;;;;;;;;;;1888848;75;26615;-43
2022/02/07 14:31:56;;;;;;;0.50;0.30;;;;;;;;;;1889259;75;26613;-43
2022/02/07 14:34:24;;;;;;;0.20;0.20;;;;;;;;;;1879777;75;26945;-44
2022/02/07 14:36:51;;;;;;;0.20;0.20;;;;;;;;;;1875261;76;26305;-46
2022/02/07 14:39:19;;;;;;;0.23;0.23;;;;;;;;;;1881007;76;26291;-47
2022/02/07 14:41:47;;;;;;;0.20;0.20;;;;;;;;;;1869947;76;26273;-48
2022/02/07 14:44:21;;;;;;;0.20;0.20;;;;;;;;;;1884506;76;26767;-43
2022/02/07 14:46:51;;;;;;;0.47;0.20;;;;;;;;;;1875235;76;26221;-47
2022/02/07 14:49:13;;;;;;;0.30;0.30;;;;;;;;;;1875970;76;26214;-45
2022/02/07 14:51:40;;;;;;;0.28;0.28;;;;;;;;;;1879490;76;26283;-44
2022/02/07 14:54:07;;;;;;;0.37;0.28;;;;;;;;;;1875175;76;26302;-46
2022/02/07 14:56:35;;;;;;;0.25;0.25;;;;;;;;;;1881255;76;26214;-45
2022/02/07 14:59:02;;;;;;;0.10;0.10;;;;;;;;;;1865454;76;26281;-44
2022/02/07 15:01:29;;;;;;;1.25;0.28;;;;;;;;;;1881512;76;26154;-45
2022/02/07 15:03:57;;;;;;;0.30;0.30;;;;;;;;;;1873197;76;26679;-42
2022/02/07 15:06:24;;;;;;;0.30;0.30;;;;;;;;;;1880096;76;26300;-43
2022/02/07 15:08:51;;;;;;;0.53;0.53;;;;;;;;;;1874447;76;26703;-53
2022/02/07 15:11:19;;;;;;;1.55;0.33;;;;;;;;;;1879667;76;26324;-45
2022/02/07 15:13:47;;;;;;;0.65;0.25;;;;;;;;;;1890916;74;26214;-51
2022/02/07 15:16:15;;;;;;;0.40;0.23;;;;;;;;;;1887404;76;26275;-45
2022/02/07 15:18:42;;;;;;;1.12;0.20;;;;;;;;;;1875390;76;26322;-51
2022/02/07 15:21:09;;;;;;;0.30;0.20;;;;;;;;;;1867695;76;26305;-46
2022/02/07 15:23:38;;;;;;;0.65;0.20;;;;;;;;;;1889099;76;26162;-44
2022/02/07 15:26:06;;;;;;;0.10;0.10;;;;;;;;;;1874061;76;26258;-42
2022/02/07 15:28:33;;;;;;;0.80;0.10;;;;;;;;;;1868715;76;27790;-40
2022/02/07 15:31:01;;;;;;;0.30;0.30;;;;;;;;;;1859788;76;26243;-48
2022/02/07 15:33:37;;;;;;;1.37;0.20;;;;;;;;;;1886767;76;26261;-47
2022/02/07 15:35:57;;;;;;;1.77;0.20;;;;;;;;;;1887315;75;26625;-44
2022/02/07 15:38:25;;;;;;;0.20;0.20;;;;;;;;;;1898674;74;26760;-44
2022/02/07 15:40:53;;;;;;;1.55;0.10;;;;;;;;;;1882476;74;26279;-46
2022/02/07 15:43:21;;;;;;;0.35;0.28;;;;;;;;;;1883443;75;26795;-45
2022/02/07 15:45:49;;;;;;;0.23;0.20;;;;;;;;;;1889419;75;26640;-42
2022/02/07 15:48:22;;;;;;;0.55;0.17;;;;;;;;;;1896817;75;26197;-43
2022/02/07 15:50:45;;;;;;;0.20;0.20;;;;;;;;;;1889747;75;26332;-41
2022/02/07 15:53:12;;;;;;;0.10;0.10;;;;;;;;;;1891065;74;26429;-42
2022/02/07 15:55:39;;;;;;;0.20;0.20;;;;;;;;;;1888286;74;26257;-43
2022/02/07 15:58:07;;;;;;;0.10;0.10;;;;;;;;;;1891754;75;26229;-42
2022/02/07 16:00:34;;;;;;;0.30;0.20;;;;;;;;;;1887446;75;26197;-43
2022/02/07 16:03:02;;;;;;;0.10;0.10;;;;;;;;;;1892928;74;26503;-43
2022/02/07 16:05:29;;;;;;;0.00;0.00;;;;;;;;;;1894736;74;26356;-44
2022/02/07 16:08:01;;;;;;;0.20;0.20;;;;;;;;;;1894275;75;26211;-47
2022/02/07 16:10:32;;;;;;;0.13;0.13;;;;;;;;;;1888558;75;26213;-47
2022/02/07 16:13:20;;;;;;;0.23;0.23;;;;;;;;;;1891483;74;26427;-45
2022/02/07 16:15:31;;;;;;;0.30;0.30;;;;;;;;;;1878196;75;26170;-45
2022/02/07 16:17:59;;;;;;;0.30;0.30;;;;;;;;;;1891551;75;26219;-43
2022/02/07 16:20:26;;;;;;;0.20;0.20;;;;;;;;;;1889612;74;26645;-50
2022/02/07 16:22:53;;;;;;;0.20;0.20;;;;;;;;;;1889200;74;26740;-47
2022/02/07 16:25:20;;;;;;;2.67;0.30;;;;;;;;;;1892799;74;26356;-45
2022/02/07 16:27:48;;;;;;;0.10;0.10;;;;;;;;;;1894760;74;26201;-49
2022/02/07 16:30:15;;;;;;;1.45;0.10;;;;;;;;;;1895598;75;26283;-45
2022/02/07 16:32:43;;;;;;;0.10;0.10;;;;;;;;;;1894388;74;26300;-45
2022/02/07 16:35:10;;;;;;;0.20;0.20;;;;;;;;;;1892277;74;26272;-46
2022/02/07 16:37:38;;;;;;;0.10;0.10;;;;;;;;;;1880727;76;26179;-54
2022/02/07 16:40:06;;;;;;;0.10;0.10;;;;;;;;;;1884449;76;26198;-46
2022/02/07 16:42:34;;;;;;;0.20;0.20;;;;;;;;;;1875187;76;26792;-44
2022/02/07 16:45:05;;;;;;;1.10;0.20;;;;;;;;;;1883538;76;26309;-48
2022/02/07 16:47:30;;;;;;;0.20;0.20;;;;;;;;;;1880134;76;26242;-53
2022/02/07 16:49:58;;;;;;;0.20;0.20;;;;;;;;;;1879552;76;26699;-53
2022/02/07 16:52:25;;;;;;;0.20;0.20;;;;;;;;;;1879695;76;26309;-47
2022/02/07 16:54:53;;;;;;;0.25;0.13;;;;;;;;;;1877372;76;26293;-53
2022/02/07 16:57:20;;;;;;;0.10;0.10;;;;;;;;;;1880007;76;26217;-48
2022/02/07 16:59:48;;;;;;;0.55;0.20;;;;;;;;;;1880228;76;26216;-44
2022/02/07 17:02:24;;;;;;;0.10;0.10;;;;;;;;;;1884112;76;26285;-44
2022/02/07 17:04:46;;;;;;;0.10;0.10;;;;;;;;;;1880219;76;26324;-44
2022/02/07 17:07:14;;;;;;;0.30;0.10;;;;;;;;;;1880802;76;26226;-52
2022/02/07 17:09:43;;;;;;;0.10;0.10;;;;;;;;;;1873774;76;26219;-49
2022/02/07 17:12:12;;;;;;;0.20;0.20;;;;;;;;;;1880171;76;26179;-44
2022/02/07 17:14:39;;;;;;;0.20;0.20;;;;;;;;;;1880307;74;26245;-45
2022/02/07 17:17:07;;;;;;;1.45;0.30;;;;;;;;;;1875687;76;26166;-45
2022/02/07 17:19:35;;;;;;;0.30;0.30;;;;;;;;;;1874738;76;26223;-47
2022/02/07 17:22:02;;;;;;;0.62;0.40;;;;;;;;;;1880007;76;26174;-49
2022/02/07 17:24:32;;;;;;;0.35;0.30;;;;;;;;;;1904581;74;26150;-48